Data for 07/29/2010

Time Sea-Level Adjusted Pressure Absolute Pressure Temperature Relative Humidity Dew Point   
(mb) (inHg) (mb) (inHg) (C) (F) (%) (C) (F)
00:05 1022 30.18 851 25.13 16.7 62.1 64 9.9 49.8
00:10 1022 30.18 851 25.13 16.9 62.5 63 9.9 49.8
00:15 1022 30.18 851 25.13 16.9 62.5 64 10.1 50.1
00:20 1022 30.18 851 25.13 17.1 62.8 61 9.6 49.2
00:25 1022 30.18 851 25.13 17.1 62.8 61 9.7 49.4
00:30 1022 30.18 851 25.13 17.1 62.7 62 9.9 49.7
00:35 1022 30.18 851 25.13 17 62.6 61 9.5 49.2
00:40 1022 30.18 851 25.13 17 62.7 61 9.6 49.3
00:45 1022 30.18 851 25.13 16.8 62.3 62 9.6 49.2
00:50 1022 30.18 851 25.13 16.8 62.2 65 10.3 50.5
00:55 1022 30.18 851 25.13 16.5 61.7 68 10.6 51.1
01:00 1022 30.18 851 25.13 16.3 61.3 65 9.7 49.5
01:05 1022 30.18 851 25.13 16.4 61.4 63 9.3 48.7
01:10 1022 30.18 851 25.13 16.5 61.6 67 10.4 50.7
01:15 1022 30.18 851 25.13 15.8 60.5 71 10.6 51.1
01:20 1022 30.18 851 25.13 15.6 60 69 10 50
01:25 1022 30.18 851 25.13 15.6 60.1 64 9 48.2
01:30 1022 30.18 851 25.13 15.7 60.2 72 10.6 51.1
01:35 1022 30.18 851 25.13 15.1 59.2 71 9.9 49.8
01:40 1022 30.18 851 25.13 14.6 58.2 75 10.1 50.3
01:45 1022 30.18 851 25.13 14.1 57.3 75 9.8 49.6
01:50 1022 30.18 851 25.13 14 57.1 74 9.4 49
01:55 1022 30.18 851 25.13 14.3 57.8 71 9.1 48.4
02:00 1022 30.18 851 25.13 14.5 58 71 9.4 48.9
02:05 1022 30.18 851 25.13 14.3 57.8 70 9 48.3
02:10 1022 30.18 851 25.13 14.7 58.4 69 9.2 48.5
02:15 1022 30.18 851 25.13 14.7 58.4 70 9.4 48.9
02:20 1022 30.18 851 25.13 14.3 57.8 71 9.3 48.7
02:25 1022 30.18 851 25.13 14 57.2 72 9.1 48.4
02:30 1022 30.18 851 25.13 14 57.2 71 8.9 48
02:35 1021 30.15 851 25.13 14.3 57.8 70 8.9 48.1
02:40 1021 30.15 851 25.13 14.3 57.7 71 9.1 48.4
02:45 1021 30.15 851 25.13 14.1 57.4 70 8.8 47.9
02:50 1021 30.15 851 25.13 14.3 57.7 70 9 48.2
02:55 1021 30.15 851 25.13 14 57.3 71 8.9 48.1
03:00 1021 30.15 850 25.1 13.9 57.1 72 8.9 48.1
03:05 1021 30.15 850 25.1 13.7 56.6 73 9 48.1
03:10 1021 30.15 850 25.1 13.7 56.7 71 8.6 47.5
03:15 1021 30.15 850 25.1 14 57.3 70 8.6 47.5
03:20 1021 30.15 850 25.1 14.2 57.6 70 8.9 48
03:25 1021 30.15 850 25.1 14 57.2 72 9 48.2
03:30 1021 30.15 850 25.1 13.8 56.9 73 9.1 48.4
03:35 1021 30.15 851 25.13 13.6 56.5 73 9 48.2
03:40 1021 30.15 851 25.13 13.6 56.4 72 8.8 47.8
03:45 1022 30.18 851 25.13 13.9 56.9 71 8.7 47.6
03:50 1022 30.18 851 25.13 14.2 57.6 69 8.6 47.5
03:55 1022 30.18 851 25.13 14.6 58.2 67 8.6 47.4
04:00 1022 30.18 851 25.13 14.9 58.9 67 8.9 48
04:05 1022 30.18 851 25.13 14.8 58.6 68 9 48.2
04:10 1022 30.18 851 25.13 14.4 57.9 71 9.2 48.5
04:15 1022 30.18 851 25.13 13.9 57 72 9 48.2
04:20 1022 30.18 851 25.13 13.8 56.9 72 8.9 48.1
04:25 1022 30.18 851 25.13 13.8 56.8 73 9 48.2
04:30 1022 30.18 851 25.13 13.8 56.8 72 8.9 48.1
04:35 1022 30.18 851 25.13 13.8 56.8 72 9 48.1
04:40 1022 30.18 851 25.13 13.7 56.7 73 9 48.2
04:45 1022 30.18 851 25.13 13.5 56.3 72 8.7 47.6
04:50 1022 30.18 851 25.13 13.8 56.9 71 8.7 47.7
04:55 1022 30.18 851 25.13 13.9 56.9 72 9 48.2
05:00 1022 30.18 851 25.13 13.6 56.4 73 8.9 48.1
05:05 1022 30.18 851 25.13 13.3 56 74 8.8 47.9
05:10 1022 30.18 851 25.13 13.2 55.8 75 9 48.1
05:15 1022 30.18 851 25.13 13 55.4 76 8.9 48.1
05:20 1022 30.18 851 25.13 12.8 55.1 76 8.6 47.6
05:25 1022 30.18 851 25.13 13 55.4 74 8.5 47.4
05:30 1022 30.18 851 25.13 13.2 55.8 74 8.8 47.9
05:35 1022 30.18 851 25.13 13.2 55.7 74 8.8 47.8
05:40 1022 30.18 851 25.13 13.2 55.7 74 8.7 47.7
05:45 1022 30.18 851 25.13 13.2 55.7 74 8.8 47.8
05:50 1022 30.18 851 25.13 13.2 55.8 75 8.8 47.9
05:55 1022 30.18 851 25.13 13.2 55.7 75 8.8 47.9
06:00 1022 30.18 851 25.13 13.1 55.6 74 8.7 47.7
06:05 1022 30.18 851 25.13 13.1 55.6 74 8.7 47.7
06:10 1022 30.18 851 25.13 13.2 55.8 73 8.5 47.2
06:15 1022 30.18 851 25.13 13.4 56.2 73 8.8 47.8
06:20 1022 30.18 851 25.13 13.5 56.3 72 8.7 47.6
06:25 1022 30.18 851 25.13 13.6 56.5 72 8.6 47.5
06:30 1022 30.18 851 25.13 13.8 56.9 71 8.7 47.6
06:35 1022 30.18 851 25.13 14.2 57.5 69 8.7 47.7
06:40 1022 30.18 851 25.13 14.5 58.1 68 8.6 47.6
06:45 1022 30.18 851 25.13 14.9 58.8 65 8.5 47.3
06:50 1022 30.18 852 25.16 15.7 60.2 61 8.2 46.8
06:55 1022 30.18 852 25.16 16.1 60.9 64 9.2 48.6
07:00 1022 30.18 852 25.16 15.8 60.5 64 9 48.3
07:05 1022 30.18 852 25.16 16.1 60.9 61 8.7 47.7
07:10 1022 30.18 852 25.16 16 60.8 65 9.6 49.3
07:15 1023 30.21 852 25.16 15.7 60.2 66 9.5 49
07:20 1023 30.21 852 25.16 15.6 60.1 67 9.6 49.3
07:25 1023 30.21 852 25.16 15.7 60.3 67 9.6 49.2
07:30 1023 30.21 852 25.16 16.3 61.4 65 9.9 49.8
07:35 1023 30.21 852 25.16 16.4 61.6 66 10.2 50.3
07:40 1023 30.21 852 25.16 16.5 61.6 65 9.9 49.9
07:45 1023 30.21 852 25.16 16.6 61.8 65 10 50.1
07:50 1023 30.21 852 25.16 16.9 62.4 63 9.9 49.8
07:55 1023 30.21 852 25.16 17 62.5 63 9.8 49.7
08:00 1023 30.21 852 25.16 17.4 63.2 62 10.1 50.2
08:05 1023 30.21 852 25.16 18 64.3 59 9.9 49.9
08:10 1023 30.21 852 25.16 18.6 65.5 57 9.9 49.9
08:15 1023 30.21 852 25.16 18.9 66.1 57 10.3 50.5
08:20 1023 30.21 852 25.16 19.2 66.5 55 9.9 49.9
08:25 1023 30.21 852 25.16 19.3 66.8 55 10.1 50.3
08:30 1023 30.21 852 25.16 19.7 67.4 53 10.1 50.1
08:35 1023 30.21 852 25.16 20.1 68.2 52 10.2 50.4
08:40 1023 30.21 852 25.16 20.5 68.9 51 10.1 50.2
08:45 1023 30.21 852 25.16 20.8 69.4 50 10.2 50.4
08:50 1023 30.21 852 25.16 21 69.7 52 10.9 51.6
08:55 1023 30.21 852 25.16 21 69.8 49 10.2 50.3
09:00 1023 30.21 852 25.16 21.2 70.1 49 10.2 50.4
09:05 1023 30.21 852 25.16 21.2 70.2 49 10.2 50.4
09:10 1023 30.21 852 25.16 21.7 71 48 10.4 50.7
09:15 1023 30.21 852 25.16 21.7 71.1 47 10 50
09:20 1023 30.21 852 25.16 22.1 71.8 45 9.9 49.9
09:25 1023 30.21 852 25.16 22.8 73.1 43 9.8 49.6
09:30 1023 30.21 852 25.16 23.1 73.6 44 10.4 50.8
09:35 1023 30.21 852 25.16 22.7 72.9 47 10.8 51.5
09:40 1023 30.21 852 25.16 22.1 71.8 46 10.1 50.1
09:45 1023 30.21 852 25.16 21.8 71.2 44 9.3 48.7
09:50 1023 30.21 852 25.16 22.5 72.5 41 8.9 48.1
09:55 1023 30.21 852 25.16 22.8 73 43 9.8 49.6
10:00 1023 30.21 852 25.16 22.3 72.2 44 9.6 49.3
10:05 1023 30.21 852 25.16 22.5 72.5 44 9.8 49.6
10:10 1023 30.21 852 25.16 23.2 73.8 42 9.8 49.7
10:15 1023 30.21 852 25.16 23.5 74.4 41 9.6 49.4
10:20 1023 30.21 852 25.16 22.6 72.6 44 9.7 49.5
10:25 1023 30.21 852 25.16 23 73.4 41 9.4 48.9
10:30 1023 30.21 852 25.16 23.5 74.3 41 9.6 49.4
10:35 1023 30.21 852 25.16 23.8 74.9 39 9.4 48.9
10:40 1023 30.21 852 25.16 23.3 74 40 9.1 48.3
10:45 1023 30.21 852 25.16 23.8 74.8 39 9.3 48.7
10:50 1023 30.21 852 25.16 24.5 76.1 40 10.1 50.2
10:55 1023 30.21 852 25.16 24 75.2 41 10 50.1
11:00 1023 30.21 852 25.16 23.4 74.2 41 9.5 49.1
11:05 1023 30.21 852 25.16 24.1 75.4 37 8.6 47.4
11:10 1023 30.21 852 25.16 25.2 77.3 35 9 48.2
11:15 1023 30.21 852 25.16 25.4 77.8 36 9.6 49.2
11:20 1023 30.21 852 25.16 25.5 77.9 34 8.8 47.8
11:25 1023 30.21 852 25.16 25.9 78.7 33 8.5 47.3
11:30 1023 30.21 852 25.16 26.6 79.9 33 9.1 48.3
11:35 1023 30.21 852 25.16 26.6 79.8 31 8.5 47.4
11:40 1023 30.21 852 25.16 26.6 79.8 33 9.1 48.5
11:45 1023 30.21 852 25.16 25.1 77.3 36 9.1 48.3
11:50 1023 30.21 852 25.16 25.2 77.4 31 7.2 44.9
11:55 1023 30.21 852 25.16 26.8 80.2 28 7.2 44.9
12:00 1023 30.21 852 25.16 27.2 80.9 29 8.1 46.6
12:05 1023 30.21 852 25.16 26.6 79.9 27 6.4 43.5
12:10 1023 30.21 852 25.16 27.5 81.5 27 7.3 45.1
12:15 1023 30.21 852 25.16 27.7 81.9 27 7.5 45.5
12:20 1022 30.18 852 25.16 27.3 81.2 28 7.6 45.8
12:25 1022 30.18 852 25.16 27.5 81.5 28 7.4 45.4
12:30 1022 30.18 852 25.16 26.9 80.5 26 6 42.8
12:35 1022 30.18 852 25.16 27.1 80.8 24 5.2 41.4
12:40 1022 30.18 851 25.13 27.7 81.8 23 5.2 41.4
12:45 1022 30.18 851 25.13 27.8 82.1 23 4.9 40.8
12:50 1022 30.18 851 25.13 28.3 82.9 22 5 41
12:55 1022 30.18 851 25.13 28.3 83 21 4.4 39.9
13:00 1022 30.18 851 25.13 28.2 82.7 23 5.2 41.4
13:05 1022 30.18 851 25.13 28.1 82.5 22 4.7 40.4
13:10 1022 30.18 851 25.13 28.3 83 22 4.9 40.8
13:15 1022 30.18 851 25.13 27.9 82.2 22 4.8 40.6
13:20 1022 30.18 851 25.13 28.7 83.6 21 4.7 40.4
13:25 1022 30.18 851 25.13 28.2 82.8 24 5.9 42.6
13:30 1022 30.18 851 25.13 28.1 82.5 24 6 42.9
13:35 1022 30.18 851 25.13 26.9 80.4 26 6.2 43.2
13:40 1022 30.18 851 25.13 27 80.6 25 5.6 42.1
13:45 1022 30.18 851 25.13 27.2 80.9 26 6 42.9
13:50 1022 30.18 851 25.13 27.7 81.8 23 4.8 40.6
13:55 1022 30.18 851 25.13 28.3 83 22 4.9 40.8
14:00 1022 30.18 851 25.13 28.7 83.6 22 5.5 41.8
14:05 1022 30.18 851 25.13 28.3 83 22 5.1 41.3
14:10 1022 30.18 851 25.13 28.3 83 23 5.3 41.5
14:15 1022 30.18 851 25.13 28 82.4 24 5.7 42.2
14:20 1022 30.18 851 25.13 28.1 82.6 24 5.8 42.4
14:25 1022 30.18 851 25.13 28.2 82.7 23 5.4 41.7
14:30 1022 30.18 851 25.13 27.4 81.4 24 5.6 42.2
14:35 1022 30.18 851 25.13 28.8 83.8 22 5 41
14:40 1022 30.18 851 25.13 29.2 84.6 22 5.8 42.5
14:45 1022 30.18 851 25.13 29.3 84.8 22 5.5 41.9
14:50 1022 30.18 851 25.13 29.1 84.4 22 5.6 42.1
14:55 1022 30.18 851 25.13 29 84.2 21 5.1 41.1
15:00 1022 30.18 851 25.13 29.3 84.8 22 5.9 42.6
15:05 1022 30.18 851 25.13 29.2 84.5 21 5 40.9
15:10 1022 30.18 851 25.13 29.5 85.1 21 5.2 41.4
15:15 1022 30.18 851 25.13 28.6 83.4 23 5.7 42.3
15:20 1022 30.18 851 25.13 29.2 84.5 22 5.5 41.8
15:25 1022 30.18 851 25.13 29.4 84.9 20 4.7 40.4
15:30 1022 30.18 851 25.13 30.2 86.3 20 4.8 40.7
15:35 1022 30.18 851 25.13 30.4 86.7 20 5.4 41.7
15:40 1021 30.15 851 25.13 29.8 85.7 20 4.8 40.6
15:45 1021 30.15 851 25.13 29.5 85.1 20 4.6 40.2
15:50 1021 30.15 850 25.1 29.9 85.7 20 5 41
15:55 1021 30.15 850 25.1 30.1 86.1 21 5.6 42.1
16:00 1021 30.15 850 25.1 29.3 84.7 22 5.9 42.6
16:05 1021 30.15 850 25.1 29.4 84.8 21 5.4 41.7
16:10 1021 30.15 850 25.1 29.5 85.1 21 5 41
16:15 1021 30.15 850 25.1 29.3 84.7 20 4.6 40.4
16:20 1021 30.15 850 25.1 29.4 84.9 19 4.1 39.3
16:25 1021 30.15 850 25.1 30.5 86.9 19 4.4 39.9
16:30 1021 30.15 850 25.1 30.1 86.2 19 4.6 40.2
16:35 1021 30.15 850 25.1 30.8 87.4 17 3 37.4
16:40 1021 30.15 850 25.1 31.4 88.6 15 2.5 36.5
16:45 1021 30.15 850 25.1 31 87.9 15 2.1 35.9
16:50 1021 30.15 850 25.1 30.7 87.3 17 3 37.3
16:55 1021 30.15 850 25.1 30.7 87.2 15 1.8 35.3
17:00 1021 30.15 850 25.1 30.8 87.4 16 2 35.6
17:05 1021 30.15 850 25.1 30.6 87.1 15 1.8 35.3
17:10 1021 30.15 850 25.1 30.2 86.4 15 1.5 34.7
17:15 1021 30.15 850 25.1 30.4 86.6 15 1 33.7
17:20 1021 30.15 850 25.1 30 85.9 15 1.2 34.2
17:25 1021 30.15 850 25.1 29.8 85.6 16 1.7 35.1
17:30 1021 30.15 850 25.1 30.4 86.7 15 0.9 33.6
17:35 1021 30.15 850 25.1 30.1 86.2 15 1.3 34.3
17:40 1021 30.15 850 25.1 30.8 87.4 15 1.5 34.6
17:45 1021 30.15 850 25.1 30.7 87.3 15 1.8 35.3
17:50 1021 30.15 850 25.1 30.7 87.3 15 1.3 34.3
17:55 1021 30.15 850 25.1 30.6 87.1 15 1.5 34.7
18:00 1021 30.15 850 25.1 30.5 87 15 1 33.7
18:05 1020 30.12 850 25.1 30.9 87.7 14 0.9 33.7
18:10 1020 30.12 850 25.1 30.9 87.5 14 0.9 33.6
18:15 1020 30.12 850 25.1 31 87.9 15 1.4 34.5
18:20 1020 30.12 850 25.1 30.4 86.8 14 0.4 32.7
18:25 1020 30.12 850 25.1 30.4 86.7 15 1.4 34.6
18:30 1020 30.12 850 25.1 30.1 86.3 15 1.1 33.9
18:35 1020 30.12 850 25.1 30.1 86.2 14 0.5 32.9
18:40 1020 30.12 850 25.1 29.3 84.8 15 0.3 32.6
18:45 1020 30.12 850 25.1 29.5 85.1 15 0.4 32.7
18:50 1020 30.12 850 25.1 29.7 85.4 15 0.9 33.5
18:55 1020 30.12 849 25.07 29.7 85.4 15 0.5 33
19:00 1020 30.12 850 25.1 29.7 85.4 14 -0.2 31.6
19:05 1020 30.12 850 25.1 29.5 85 14 -0.9 30.4
19:10 1020 30.12 849 25.07 29.5 85 15 0.2 32.3
19:15 1020 30.12 849 25.07 29.1 84.4 15 0.4 32.7
19:20 1020 30.12 850 25.1 28.7 83.7 15 0.3 32.5
19:25 1020 30.12 850 25.1 28.6 83.4 15 0 32.1
19:30 1020 30.12 849 25.07 28.5 83.2 15 -0 31.9
19:35 1020 30.12 849 25.07 28.4 83.1 16 0.1 32.1
19:40 1020 30.12 849 25.07 28.2 82.8 16 0.7 33.3
19:45 1020 30.12 850 25.1 28 82.4 17 1 33.7
19:50 1020 30.12 850 25.1 27.8 82 19 2.3 36.1
19:55 1020 30.12 850 25.1 27.5 81.5 18 1.6 34.9
20:00 1020 30.12 850 25.1 27.4 81.3 18 1.6 34.8
20:05 1021 30.15 850 25.1 27.3 81.2 19 1.8 35.2
20:10 1021 30.15 850 25.1 27.3 81.1 18 1.2 34.2
20:15 1020 30.12 850 25.1 27.1 80.8 20 2.5 36.5
20:20 1020 30.12 850 25.1 26.9 80.3 25 5.4 41.8
20:25 1021 30.15 850 25.1 26.1 79.1 25 5 41.1
20:30 1021 30.15 850 25.1 25.6 78 26 5 41.1
20:35 1021 30.15 850 25.1 25.2 77.3 27 5.2 41.4
20:40 1021 30.15 850 25.1 25 77.1 28 5.3 41.6
20:45 1021 30.15 850 25.1 24.8 76.6 28 5.1 41.2
20:50 1021 30.15 850 25.1 24.5 76 32 6.8 44.2
20:55 1021 30.15 850 25.1 23.8 74.8 35 7.5 45.5
21:00 1021 30.15 850 25.1 23.4 74 33 6.4 43.6
21:05 1021 30.15 850 25.1 23.1 73.6 33 6.4 43.5
21:10 1021 30.15 850 25.1 22.7 72.8 36 7.2 45
21:15 1021 30.15 850 25.1 22.4 72.4 32 5.3 41.6
21:20 1021 30.15 850 25.1 22.4 72.3 34 5.8 42.5
21:25 1021 30.15 850 25.1 22.3 72.2 33 5.5 41.8
21:30 1021 30.15 850 25.1 22.2 72 32 5.1 41.1
21:35 1021 30.15 850 25.1 21.9 71.4 34 5.3 41.6
21:40 1021 30.15 851 25.13 21.6 70.8 35 5.8 42.4
21:45 1021 30.15 851 25.13 21.3 70.4 35 5.6 42.1
21:50 1021 30.15 851 25.13 21.2 70.1 35 5.1 41.2
21:55 1021 30.15 851 25.13 21 69.8 34 4.7 40.5
22:00 1022 30.18 851 25.13 20.7 69.3 36 5.4 41.8
22:05 1022 30.18 851 25.13 20.3 68.6 36 5.1 41.2
22:10 1022 30.18 851 25.13 19.9 67.7 39 5.7 42.3
22:15 1021 30.15 851 25.13 19.7 67.5 35 4.1 39.4
22:20 1021 30.15 851 25.13 19.8 67.6 35 4.1 39.5
22:25 1021 30.15 851 25.13 19.8 67.6 32 2.9 37.3
22:30 1021 30.15 851 25.13 20 68 35 4.3 39.7
22:35 1021 30.15 851 25.13 19.5 67 35 3.7 38.6
22:40 1021 30.15 851 25.13 19.3 66.8 35 3.6 38.5
22:45 1021 30.15 851 25.13 19.4 66.8 35 3.6 38.5
22:50 1021 30.15 851 25.13 19.5 67.2 33 2.9 37.2
22:55 1021 30.15 851 25.13 19.8 67.7 32 2.8 37.1
23:00 1021 30.15 851 25.13 19.9 67.9 32 2.9 37.1
23:05 1022 30.18 851 25.13 20.2 68.3 30 2.4 36.4
23:10 1022 30.18 851 25.13 20.3 68.5 31 2.9 37.2
23:15 1022 30.18 851 25.13 20.2 68.3 31 2.8 37
23:20 1022 30.18 851 25.13 20.2 68.3 31 2.6 36.7
23:25 1021 30.15 851 25.13 20.5 68.9 31 3 37.4
23:30 1021 30.15 851 25.13 20.2 68.3 32 3.1 37.7
23:35 1021 30.15 851 25.13 19.9 67.7 33 3.5 38.2
23:40 1021 30.15 851 25.13 19.4 66.9 35 3.6 38.5
23:45 1021 30.15 851 25.13 19.2 66.5 35 3.4 38.2
23:50 1021 30.15 851 25.13 19.1 66.5 34 3 37.4
23:55 1021 30.15 851 25.13 19.1 66.3 35 3.2 37.8
24:00 1022 30.18 851 25.13 18.9 66.1 35 3.2 37.8